Time;durP1;ratioP1;P1;durP2;ratioP2;P2;SDS_P1;SDS_P2;PMS_P1;PMS_P2;Temp;Humidity;BMP_temperature;BMP_pressure;BME280_temperature;BME280_humidity;BME280_pressure;Samples;Min_cycle;Max_cycle;Signal;HPM_P1;HPM_P2
2021/09/04 00:02:14;;;;;;;9.20;7.57;;;16.40;99.90;;;;;;4825587;29;20175;-86
2021/09/04 00:04:40;;;;;;;8.97;6.80;;;16.40;99.90;;;;;;4824066;29;20198;-86
2021/09/04 00:07:07;;;;;;;8.57;7.10;;;16.50;99.90;;;;;;4824216;29;20182;-86
2021/09/04 00:09:34;;;;;;;13.00;6.97;;;16.50;99.90;;;;;;4824120;29;20545;-86
2021/09/04 00:12:00;;;;;;;7.80;6.30;;;16.60;99.90;;;;;;4825279;29;20477;-85
2021/09/04 00:14:26;;;;;;;10.03;7.00;;;16.60;99.90;;;;;;4824182;29;20971;-86
2021/09/04 00:16:52;;;;;;;12.20;7.00;;;16.70;99.90;;;;;;4828678;29;20438;-87
2021/09/04 00:19:18;;;;;;;10.00;6.70;;;16.70;99.90;;;;;;4825262;29;20496;-86
2021/09/04 00:21:43;;;;;;;9.20;7.13;;;16.70;99.90;;;;;;4827095;29;20202;-86
2021/09/04 00:24:09;;;;;;;9.30;7.20;;;16.60;99.90;;;;;;4823999;29;20657;-87
2021/09/04 00:26:35;;;;;;;9.57;7.57;;;16.60;99.90;;;;;;4825639;29;20644;-86
2021/09/04 00:29:00;;;;;;;9.87;7.00;;;16.60;99.90;;;;;;4825784;29;20210;-86
2021/09/04 00:31:26;;;;;;;11.07;8.40;;;16.60;99.90;;;;;;4823833;29;20232;-88
2021/09/04 00:33:52;;;;;;;9.27;7.63;;;16.50;99.90;;;;;;4825049;29;20617;-87
2021/09/04 00:36:17;;;;;;;12.30;8.07;;;16.50;99.90;;;;;;4825319;29;20706;-86
2021/09/04 00:38:43;;;;;;;9.60;8.60;;;16.50;99.90;;;;;;4825181;29;20251;-87
2021/09/04 00:41:09;;;;;;;10.17;7.50;;;16.50;99.90;;;;;;4825299;29;20182;-86
2021/09/04 00:43:34;;;;;;;10.10;7.47;;;16.50;99.90;;;;;;4830825;29;20254;-86
2021/09/04 00:46:10;;;;;;;11.97;7.87;;;16.40;99.90;;;;;;4826270;29;20594;-87
2021/09/04 00:48:36;;;;;;;10.67;7.47;;;16.50;99.90;;;;;;4824382;29;20441;-86
2021/09/04 00:51:03;;;;;;;14.80;8.43;;;16.40;99.90;;;;;;4823711;29;20767;-88
2021/09/04 00:53:29;;;;;;;13.67;7.83;;;16.40;99.90;;;;;;4824784;29;20430;-88
2021/09/04 00:55:54;;;;;;;8.37;7.40;;;16.30;99.90;;;;;;4830499;29;20458;-86
2021/09/04 00:58:20;;;;;;;14.10;8.13;;;16.30;99.90;;;;;;4829398;29;20919;-88
2021/09/04 01:00:52;;;;;;;11.30;7.70;;;16.20;99.90;;;;;;4824993;29;20189;-88
2021/09/04 01:03:18;;;;;;;11.10;8.40;;;16.20;99.90;;;;;;4823543;29;20581;-87
2021/09/04 01:05:47;;;;;;;10.53;8.00;;;16.20;99.90;;;;;;4826457;29;20594;-88
2021/09/04 01:08:13;;;;;;;8.67;7.40;;;16.10;99.90;;;;;;4824474;29;20436;-88
2021/09/04 01:10:39;;;;;;;12.87;8.43;;;16.10;99.90;;;;;;4823495;29;20495;-86
2021/09/04 01:13:05;;;;;;;12.77;8.57;;;16.10;99.90;;;;;;4823301;29;20477;-87
2021/09/04 01:15:30;;;;;;;9.47;7.90;;;16.10;99.90;;;;;;4824739;29;20425;-86
2021/09/04 01:18:00;;;;;;;11.13;7.83;;;16.00;99.90;;;;;;4823381;29;20185;-86
2021/09/04 01:20:26;;;;;;;12.87;7.33;;;16.00;99.90;;;;;;4823504;29;20631;-88
2021/09/04 01:22:51;;;;;;;10.70;7.17;;;16.00;99.90;;;;;;4823266;29;20442;-87
2021/09/04 01:25:24;;;;;;;10.33;6.93;;;16.10;99.90;;;;;;4826136;29;20531;-88
2021/09/04 01:27:51;;;;;;;11.20;7.00;;;16.10;99.90;;;;;;4823252;29;20206;-88
2021/09/04 01:30:17;;;;;;;8.97;6.43;;;16.10;99.90;;;;;;4824663;29;20822;-86
2021/09/04 01:32:43;;;;;;;10.80;7.50;;;16.10;99.90;;;;;;4828407;29;20945;-86
2021/09/04 01:35:11;;;;;;;9.73;8.27;;;16.00;99.90;;;;;;4826547;29;20462;-86
2021/09/04 01:37:37;;;;;;;8.47;7.10;;;16.10;99.90;;;;;;4824390;29;20174;-88
2021/09/04 01:40:09;;;;;;;13.70;8.90;;;16.00;99.90;;;;;;4823122;29;20453;-87
2021/09/04 01:42:35;;;;;;;8.30;7.10;;;16.00;99.90;;;;;;4825864;29;20388;-86
2021/09/04 01:45:00;;;;;;;10.03;8.07;;;16.00;99.90;;;;;;4822998;29;20499;-87
2021/09/04 01:47:26;;;;;;;10.07;7.00;;;15.90;99.90;;;;;;4823152;29;20178;-87
2021/09/04 01:49:53;;;;;;;10.37;7.23;;;15.90;99.90;;;;;;4826755;29;20205;-87
2021/09/04 01:52:19;;;;;;;14.47;8.97;;;15.90;99.90;;;;;;4824183;29;20447;-88
2021/09/04 01:54:45;;;;;;;13.17;7.80;;;15.80;99.90;;;;;;4822902;29;20493;-88
2021/09/04 01:57:11;;;;;;;8.80;7.33;;;15.80;99.90;;;;;;4828808;29;20500;-86
2021/09/04 01:59:38;;;;;;;9.13;7.90;;;15.80;99.90;;;;;;4827852;29;20201;-88
2021/09/04 02:02:05;;;;;;;9.80;8.30;;;15.70;99.90;;;;;;4827222;29;20261;-87
2021/09/04 02:04:30;;;;;;;8.20;6.57;;;15.70;99.90;;;;;;4827248;29;20540;-87
2021/09/04 02:06:56;;;;;;;9.50;7.70;;;15.70;99.90;;;;;;4827639;29;20476;-87
2021/09/04 02:09:22;;;;;;;11.60;7.17;;;15.60;99.90;;;;;;4825815;29;20280;-86
2021/09/04 02:11:47;;;;;;;11.40;7.47;;;15.60;99.90;;;;;;4826055;29;20229;-87
2021/09/04 02:14:13;;;;;;;10.40;8.00;;;15.60;99.90;;;;;;4825818;29;20206;-86
2021/09/04 02:16:38;;;;;;;10.53;7.70;;;15.60;99.90;;;;;;4833223;29;20197;-88
2021/09/04 02:19:04;;;;;;;12.97;7.50;;;15.50;99.90;;;;;;4827009;29;20205;-87
2021/09/04 02:21:30;;;;;;;9.63;7.47;;;15.50;99.90;;;;;;4826047;29;20288;-87
2021/09/04 02:23:55;;;;;;;8.60;7.13;;;15.50;99.90;;;;;;4825819;29;20220;-86
2021/09/04 02:26:21;;;;;;;11.43;8.43;;;15.50;99.90;;;;;;4829733;29;20190;-87
2021/09/04 02:28:46;;;;;;;11.70;8.27;;;15.50;99.90;;;;;;4825650;29;20213;-87
2021/09/04 02:31:12;;;;;;;9.70;7.60;;;15.50;99.90;;;;;;4825471;29;20190;-86
2021/09/04 02:33:38;;;;;;;10.70;8.33;;;15.50;99.90;;;;;;4825537;29;20202;-88
2021/09/04 02:36:03;;;;;;;9.20;7.40;;;15.50;99.90;;;;;;4825705;29;20548;-86
2021/09/04 02:38:29;;;;;;;9.40;8.00;;;15.50;99.90;;;;;;4825762;29;20206;-87
2021/09/04 02:41:42;;;;;;;13.10;8.47;;;15.50;99.90;;;;;;4828698;29;20448;-87
2021/09/04 02:44:08;;;;;;;10.17;7.67;;;15.50;99.90;;;;;;4825346;29;20576;-87
2021/09/04 02:46:34;;;;;;;11.93;7.70;;;15.50;99.90;;;;;;4832570;29;20434;-87
2021/09/04 02:48:59;;;;;;;9.70;8.17;;;15.50;99.90;;;;;;4825367;29;20448;-88
2021/09/04 02:51:25;;;;;;;10.53;7.47;;;15.50;99.90;;;;;;4825486;29;20247;-88
2021/09/04 02:53:51;;;;;;;11.13;7.00;;;15.50;99.90;;;;;;4825247;29;20204;-87
2021/09/04 02:56:16;;;;;;;9.90;8.00;;;15.50;99.90;;;;;;4826751;29;20186;-88
2021/09/04 02:58:42;;;;;;;12.17;7.40;;;15.50;99.90;;;;;;4825130;29;20850;-87
2021/09/04 03:01:08;;;;;;;8.67;7.10;;;15.50;99.90;;;;;;4825241;29;20250;-88
2021/09/04 03:03:33;;;;;;;11.93;7.60;;;15.50;99.90;;;;;;4826337;29;20228;-86
2021/09/04 03:06:02;;;;;;;8.30;7.20;;;15.50;99.90;;;;;;4825187;29;20238;-88
2021/09/04 03:08:28;;;;;;;9.83;8.37;;;15.50;99.90;;;;;;4826170;29;20237;-88
2021/09/04 03:10:53;;;;;;;10.50;7.43;;;15.50;99.90;;;;;;4828434;29;20944;-87
2021/09/04 03:13:19;;;;;;;11.70;7.73;;;15.50;99.90;;;;;;4824823;29;20491;-88
2021/09/04 03:15:45;;;;;;;11.13;8.43;;;15.50;99.90;;;;;;4825003;29;20188;-87
2021/09/04 03:18:10;;;;;;;8.67;7.00;;;15.50;99.90;;;;;;4824858;29;20210;-88
2021/09/04 03:20:36;;;;;;;9.93;7.70;;;15.40;99.90;;;;;;4826346;29;20588;-87
2021/09/04 03:23:02;;;;;;;10.00;7.97;;;15.40;99.90;;;;;;4824739;29;20192;-86
2021/09/04 03:25:27;;;;;;;10.33;7.80;;;15.40;99.90;;;;;;4831206;29;20706;-87
2021/09/04 03:27:53;;;;;;;8.47;7.23;;;15.30;99.90;;;;;;4824881;29;20694;-86
2021/09/04 03:30:19;;;;;;;14.00;7.57;;;15.30;99.90;;;;;;4825174;29;20199;-88
2021/09/04 03:32:44;;;;;;;10.27;7.40;;;15.30;99.90;;;;;;4825942;29;20740;-86
2021/09/04 03:35:11;;;;;;;9.67;7.50;;;15.20;99.90;;;;;;4825996;29;20692;-87
2021/09/04 03:37:36;;;;;;;10.10;8.27;;;15.30;99.90;;;;;;4827598;29;20178;-87
2021/09/04 03:40:04;;;;;;;11.07;7.93;;;15.20;99.90;;;;;;4828501;29;20508;-87
2021/09/04 03:42:30;;;;;;;12.03;8.17;;;15.20;99.90;;;;;;4827998;29;20849;-88
2021/09/04 03:44:55;;;;;;;9.20;7.47;;;15.20;99.90;;;;;;4826926;29;20476;-86
2021/09/04 03:47:21;;;;;;;11.47;7.20;;;15.20;99.90;;;;;;4839407;29;20189;-87
2021/09/04 03:49:46;;;;;;;9.80;7.40;;;15.20;99.90;;;;;;4843272;29;20194;-87
2021/09/04 03:52:12;;;;;;;9.67;7.60;;;15.10;99.90;;;;;;4830694;29;20228;-86
2021/09/04 03:54:38;;;;;;;8.23;7.30;;;15.10;99.90;;;;;;4825678;29;20205;-88
2021/09/04 03:57:04;;;;;;;8.97;7.37;;;15.10;99.90;;;;;;4825593;29;20209;-86
2021/09/04 03:59:29;;;;;;;10.30;7.67;;;15.10;99.90;;;;;;4825527;29;20204;-88
2021/09/04 04:01:55;;;;;;;14.17;8.70;;;15.10;99.90;;;;;;4824461;29;20441;-86
2021/09/04 04:04:20;;;;;;;11.03;7.60;;;15.00;99.90;;;;;;4825402;29;20194;-87
2021/09/04 04:06:46;;;;;;;11.60;7.83;;;15.00;99.90;;;;;;4824535;29;20190;-88
2021/09/04 04:09:11;;;;;;;8.63;7.50;;;15.00;99.90;;;;;;4825302;29;20269;-88
2021/09/04 04:11:39;;;;;;;11.93;7.40;;;15.00;99.90;;;;;;4825714;29;20218;-88
2021/09/04 04:14:04;;;;;;;12.40;7.43;;;14.90;99.90;;;;;;4825221;29;20707;-87
2021/09/04 04:16:30;;;;;;;9.00;7.70;;;15.00;99.90;;;;;;4825703;29;20429;-87
2021/09/04 04:18:56;;;;;;;9.43;6.90;;;14.90;99.90;;;;;;4830257;29;20591;-86
2021/09/04 04:21:21;;;;;;;11.90;7.87;;;14.90;99.90;;;;;;4824152;29;20186;-88
2021/09/04 04:23:47;;;;;;;15.07;8.10;;;14.80;99.90;;;;;;4823948;29;20213;-86
2021/09/04 04:26:13;;;;;;;10.60;7.40;;;14.80;99.90;;;;;;4824252;29;20441;-86
2021/09/04 04:28:39;;;;;;;11.70;8.40;;;14.80;99.90;;;;;;4824534;29;20446;-89
2021/09/04 04:31:04;;;;;;;18.10;7.63;;;14.80;99.90;;;;;;4833457;29;20193;-86
2021/09/04 04:33:30;;;;;;;11.37;7.60;;;14.80;99.90;;;;;;4824994;29;20213;-87
2021/09/04 04:35:57;;;;;;;12.00;7.77;;;14.80;99.90;;;;;;4823817;29;20197;-86
2021/09/04 04:38:22;;;;;;;15.17;7.43;;;14.80;99.90;;;;;;4823774;29;20464;-87
2021/09/04 04:40:48;;;;;;;13.60;8.43;;;14.80;99.90;;;;;;4823794;29;20536;-86
2021/09/04 04:43:14;;;;;;;10.23;7.83;;;14.80;99.90;;;;;;4823666;29;20305;-88
2021/09/04 04:45:39;;;;;;;12.10;7.70;;;14.80;99.90;;;;;;4824495;29;20368;-88
2021/09/04 04:48:05;;;;;;;11.10;8.70;;;14.80;99.90;;;;;;4830195;29;20587;-86
2021/09/04 04:50:31;;;;;;;13.10;7.60;;;14.80;99.90;;;;;;4823707;29;20215;-88
2021/09/04 04:52:57;;;;;;;10.90;8.50;;;14.90;99.90;;;;;;4823568;29;20221;-86
2021/09/04 04:55:22;;;;;;;9.07;7.23;;;14.90;99.90;;;;;;4825031;29;20781;-88
2021/09/04 04:57:48;;;;;;;11.13;8.20;;;14.90;99.90;;;;;;4826969;29;20182;-87
2021/09/04 05:00:14;;;;;;;12.00;8.73;;;15.00;99.90;;;;;;4826206;29;20263;-86
2021/09/04 05:02:40;;;;;;;11.93;9.03;;;15.00;99.90;;;;;;4823998;29;20238;-88
2021/09/04 05:05:07;;;;;;;10.00;7.97;;;15.10;99.90;;;;;;4824684;29;20416;-86
2021/09/04 05:07:33;;;;;;;11.60;8.40;;;15.10;99.90;;;;;;4823431;29;20182;-88
2021/09/04 05:09:59;;;;;;;14.33;8.37;;;15.20;99.90;;;;;;4823445;29;20477;-87
2021/09/04 05:12:24;;;;;;;11.50;8.60;;;15.20;99.90;;;;;;4823385;29;20484;-87
2021/09/04 05:14:50;;;;;;;10.30;8.00;;;15.30;99.90;;;;;;4823261;29;20300;-87
2021/09/04 05:17:16;;;;;;;9.67;7.77;;;15.30;99.90;;;;;;4824512;29;20557;-87
2021/09/04 05:19:42;;;;;;;13.93;7.30;;;15.40;99.90;;;;;;4823238;29;20198;-88
2021/09/04 05:22:07;;;;;;;10.53;7.53;;;15.50;99.90;;;;;;4823217;29;20429;-85
2021/09/04 05:24:33;;;;;;;9.63;7.30;;;15.60;99.90;;;;;;4823460;29;20676;-84
2021/09/04 05:26:59;;;;;;;16.10;8.80;;;15.60;99.90;;;;;;4824648;29;20185;-86
2021/09/04 05:29:26;;;;;;;9.63;7.53;;;15.70;99.90;;;;;;4826045;29;20202;-87
2021/09/04 05:31:52;;;;;;;11.37;8.67;;;15.80;99.90;;;;;;4829488;29;20260;-86
2021/09/04 05:34:17;;;;;;;12.23;8.10;;;15.90;99.90;;;;;;4829358;29;20896;-86
2021/09/04 05:36:43;;;;;;;10.63;7.27;;;16.00;99.90;;;;;;4828214;29;20190;-85
2021/09/04 05:39:09;;;;;;;10.40;7.53;;;16.10;99.90;;;;;;4830140;29;20186;-88
2021/09/04 05:41:34;;;;;;;9.80;7.63;;;16.20;99.90;;;;;;4826819;29;20656;-88
2021/09/04 05:44:00;;;;;;;10.03;8.00;;;16.30;99.90;;;;;;4826390;29;20229;-88
2021/09/04 05:46:25;;;;;;;12.10;7.57;;;16.40;99.90;;;;;;4827886;29;20190;-86
2021/09/04 05:48:51;;;;;;;12.90;8.20;;;16.40;99.90;;;;;;4827492;29;20619;-88
2021/09/04 05:51:17;;;;;;;10.60;8.17;;;16.50;99.90;;;;;;4827665;29;20238;-87
2021/09/04 05:53:42;;;;;;;11.80;8.43;;;16.60;99.90;;;;;;4826224;29;20241;-87
2021/09/04 05:56:08;;;;;;;9.57;7.77;;;16.60;99.90;;;;;;4826324;29;20282;-86
2021/09/04 05:58:34;;;;;;;11.93;8.20;;;16.70;99.90;;;;;;4828613;29;20440;-87
2021/09/04 06:01:00;;;;;;;11.97;9.50;;;16.80;99.90;;;;;;4826896;29;20326;-87
2021/09/04 06:03:25;;;;;;;12.00;7.80;;;16.80;99.90;;;;;;4833421;29;20217;-87
2021/09/04 06:05:51;;;;;;;11.70;7.63;;;16.90;99.90;;;;;;4826046;29;20441;-87
2021/09/04 06:08:17;;;;;;;12.27;8.63;;;17.00;99.90;;;;;;4825672;29;20316;-87
2021/09/04 06:10:42;;;;;;;10.40;7.77;;;17.10;99.90;;;;;;4827433;29;20514;-87
2021/09/04 06:13:08;;;;;;;13.50;8.30;;;17.20;99.90;;;;;;4825684;29;20222;-87
2021/09/04 06:15:34;;;;;;;9.00;7.63;;;17.30;99.90;;;;;;4825983;29;20695;-86
2021/09/04 06:17:59;;;;;;;9.00;7.47;;;17.40;99.90;;;;;;4826918;29;20178;-87
2021/09/04 06:20:25;;;;;;;10.30;7.63;;;17.50;99.90;;;;;;4825892;29;20186;-87
2021/09/04 06:22:50;;;;;;;11.17;7.87;;;17.60;99.90;;;;;;4825658;29;20210;-87
2021/09/04 06:25:16;;;;;;;15.20;8.40;;;17.70;99.90;;;;;;4826947;29;20254;-87
2021/09/04 06:27:42;;;;;;;8.63;7.47;;;17.80;99.90;;;;;;4825706;29;20219;-87
2021/09/04 06:30:08;;;;;;;9.60;7.83;;;17.90;99.90;;;;;;4825455;29;20630;-89
2021/09/04 06:32:34;;;;;;;8.87;7.53;;;18.00;99.90;;;;;;4825847;29;20291;-85
2021/09/04 06:35:00;;;;;;;11.47;8.23;;;18.10;99.90;;;;;;4834358;29;20548;-85
2021/09/04 06:37:25;;;;;;;9.70;7.17;;;18.20;99.90;;;;;;4829827;29;20460;-85
2021/09/04 06:39:51;;;;;;;8.37;6.07;;;18.30;99.90;;;;;;4825539;29;20246;-88
2021/09/04 06:42:17;;;;;;;8.77;7.23;;;18.40;99.90;;;;;;4832427;29;20189;-87
2021/09/04 06:44:43;;;;;;;8.27;6.73;;;18.60;99.90;;;;;;4831481;29;20262;-86
2021/09/04 06:47:09;;;;;;;9.90;6.57;;;18.70;99.90;;;;;;4831005;29;20235;-85
2021/09/04 06:49:34;;;;;;;9.10;6.37;;;18.80;99.90;;;;;;4827655;29;20493;-85
2021/09/04 06:52:00;;;;;;;9.90;5.83;;;18.90;99.90;;;;;;4826451;29;20221;-88
2021/09/04 06:54:26;;;;;;;7.70;5.80;;;19.00;99.90;;;;;;4825357;29;20205;-88
2021/09/04 06:56:51;;;;;;;7.13;5.67;;;19.10;99.90;;;;;;4826966;29;20197;-88
2021/09/04 06:59:17;;;;;;;7.97;6.40;;;19.20;99.90;;;;;;4825111;29;20241;-86
2021/09/04 07:01:43;;;;;;;6.90;6.20;;;19.40;99.90;;;;;;4825452;29;20190;-88
2021/09/04 07:04:09;;;;;;;8.50;6.03;;;19.50;99.90;;;;;;4825073;29;20273;-86
2021/09/04 07:06:35;;;;;;;8.00;6.30;;;19.60;99.90;;;;;;4826805;29;20669;-87
2021/09/04 07:09:01;;;;;;;7.43;5.70;;;19.70;99.90;;;;;;4824881;29;20483;-88
2021/09/04 07:11:28;;;;;;;11.67;6.53;;;19.80;99.90;;;;;;4825291;29;20233;-84
2021/09/04 07:13:53;;;;;;;7.97;6.20;;;19.90;99.90;;;;;;4826143;29;20199;-85
2021/09/04 07:16:20;;;;;;;7.83;6.43;;;20.00;99.90;;;;;;4829351;29;20427;-86
2021/09/04 07:18:46;;;;;;;6.50;5.57;;;20.10;99.90;;;;;;4824767;29;20291;-87
2021/09/04 07:21:11;;;;;;;5.90;5.20;;;20.20;99.90;;;;;;4826315;29;20455;-86
2021/09/04 07:23:37;;;;;;;6.83;4.90;;;20.40;99.90;;;;;;4825975;29;20454;-84
2021/09/04 07:26:03;;;;;;;7.70;4.70;;;20.50;99.90;;;;;;4826229;29;20192;-86
2021/09/04 07:28:29;;;;;;;9.80;6.63;;;20.60;99.90;;;;;;4824678;29;20216;-85
2021/09/04 07:30:54;;;;;;;4.67;4.17;;;20.70;99.90;;;;;;4824629;29;20196;-86
2021/09/04 07:33:20;;;;;;;6.73;5.30;;;20.80;99.90;;;;;;4825923;29;20228;-85
2021/09/04 07:35:45;;;;;;;8.77;4.77;;;20.90;99.90;;;;;;4827011;29;20193;-84
2021/09/04 07:38:11;;;;;;;6.07;5.37;;;21.00;99.90;;;;;;4824317;29;20197;-86
2021/09/04 07:40:38;;;;;;;9.83;5.10;;;21.20;99.90;;;;;;4825944;29;20186;-87
2021/09/04 07:43:07;;;;;;;5.83;4.43;;;21.30;99.90;;;;;;4825511;29;20190;-84
2021/09/04 07:45:36;;;;;;;5.20;4.30;;;21.40;99.90;;;;;;4824370;29;20441;-84
2021/09/04 07:48:03;;;;;;;5.17;4.50;;;21.50;99.90;;;;;;4824346;29;20418;-86
2021/09/04 07:50:28;;;;;;;5.10;4.40;;;21.60;99.90;;;;;;4827104;29;20495;-85
2021/09/04 07:52:54;;;;;;;3.93;3.53;;;21.70;99.90;;;;;;4836717;29;20914;-84
2021/09/04 07:55:20;;;;;;;3.87;3.47;;;21.80;99.90;;;;;;4825288;29;20709;-86
2021/09/04 07:57:46;;;;;;;6.17;4.90;;;21.90;99.90;;;;;;4825486;29;20264;-85
2021/09/04 08:00:12;;;;;;;5.33;4.67;;;22.00;99.90;;;;;;4825389;29;20457;-86
2021/09/04 08:02:38;;;;;;;9.03;4.43;;;22.20;99.90;;;;;;4824139;29;20422;-87
2021/09/04 08:05:05;;;;;;;4.67;4.20;;;22.30;99.90;;;;;;4824622;29;20469;-86
2021/09/04 08:07:30;;;;;;;5.87;4.10;;;22.40;99.90;;;;;;4829699;29;20531;-86
2021/09/04 08:09:56;;;;;;;5.57;4.50;;;22.50;99.90;;;;;;4824918;29;20481;-86
2021/09/04 08:12:22;;;;;;;4.80;4.13;;;22.60;99.90;;;;;;4825202;29;20222;-85
2021/09/04 08:14:48;;;;;;;5.10;4.03;;;22.70;99.90;;;;;;4824081;29;20689;-86
2021/09/04 08:17:14;;;;;;;4.20;3.80;;;22.80;99.90;;;;;;4825217;29;20409;-87
2021/09/04 08:19:39;;;;;;;4.87;3.73;;;22.90;99.90;;;;;;4824037;29;20438;-84
2021/09/04 08:22:05;;;;;;;4.73;4.30;;;23.00;99.90;;;;;;4825223;29;20175;-85
2021/09/04 08:24:33;;;;;;;4.30;3.40;;;23.10;99.90;;;;;;4824419;29;20206;-85
2021/09/04 08:27:00;;;;;;;4.63;4.13;;;23.20;99.90;;;;;;4825198;29;20185;-83
2021/09/04 08:29:25;;;;;;;5.43;4.73;;;23.40;99.90;;;;;;4825069;29;20429;-86
2021/09/04 08:31:51;;;;;;;3.83;3.43;;;23.50;99.90;;;;;;4823996;29;20499;-84
2021/09/04 08:34:17;;;;;;;4.83;4.17;;;23.60;99.90;;;;;;4823671;29;20262;-84
2021/09/04 08:36:44;;;;;;;4.50;4.10;;;23.70;99.90;;;;;;4823989;29;20645;-85
2021/09/04 08:39:09;;;;;;;4.20;3.80;;;23.80;99.90;;;;;;4824826;29;20202;-85
2021/09/04 08:41:36;;;;;;;4.60;3.70;;;24.30;99.90;;;;;;4825035;29;20881;-84
2021/09/04 08:44:03;;;;;;;4.77;3.70;;;25.00;99.90;;;;;;4824939;29;20211;-85
2021/09/04 08:46:33;;;;;;;4.53;4.13;;;25.80;99.90;;;;;;4825474;29;20545;-86
2021/09/04 08:49:01;;;;;;;5.90;3.87;;;26.40;99.90;;;;;;4835826;29;20483;-84
2021/09/04 08:51:27;;;;;;;4.37;3.53;;;26.70;99.90;;;;;;4825104;29;20428;-85
2021/09/04 08:53:52;;;;;;;3.67;3.37;;;26.80;99.20;;;;;;4824634;29;20444;-85
2021/09/04 08:56:18;;;;;;;4.40;4.00;;;26.80;98.40;;;;;;4822429;29;20460;-84
2021/09/04 08:58:44;;;;;;;6.10;4.80;;;26.80;99.00;;;;;;4823672;29;20202;-84
2021/09/04 09:01:17;;;;;;;4.30;3.90;;;26.70;99.50;;;;;;4823220;29;20201;-86
2021/09/04 09:03:44;;;;;;;4.60;4.20;;;26.60;98.80;;;;;;4823337;29;20580;-85
2021/09/04 09:06:11;;;;;;;5.20;4.70;;;26.40;98.60;;;;;;4825247;29;20436;-84
2021/09/04 09:08:43;;;;;;;7.43;4.37;;;26.30;97.90;;;;;;4827951;29;20551;-85
2021/09/04 09:11:09;;;;;;;7.43;6.73;;;26.20;96.70;;;;;;4828423;29;20433;-84
2021/09/04 09:13:48;;;;;;;24.70;20.47;;;26.20;97.60;;;;;;4828195;29;20520;-85
2021/09/04 09:16:19;;;;;;;3.93;3.53;;;26.10;97.00;;;;;;4827174;29;20455;-85
2021/09/04 09:18:57;;;;;;;4.70;3.93;;;26.00;97.10;;;;;;4828278;29;20486;-85
2021/09/04 09:21:27;;;;;;;4.40;3.50;;;26.00;97.50;;;;;;4828347;29;20930;-83
2021/09/04 09:24:11;;;;;;;4.33;3.53;;;26.00;97.60;;;;;;4829222;29;20440;-83
2021/09/04 09:26:56;;;;;;;5.17;4.23;;;25.90;97.00;;;;;;4831946;29;20476;-85
2021/09/04 09:29:32;;;;;;;4.27;3.87;;;25.90;97.20;;;;;;4832620;29;20452;-86
2021/09/04 09:32:03;;;;;;;9.43;8.53;;;25.90;96.40;;;;;;4832847;29;20915;-85
2021/09/04 09:34:30;;;;;;;4.63;4.07;;;25.80;96.90;;;;;;4827896;29;20429;-84
2021/09/04 09:37:00;;;;;;;9.10;8.20;;;25.80;96.80;;;;;;4828027;29;20436;-86
2021/09/04 09:39:27;;;;;;;4.83;4.37;;;25.80;97.20;;;;;;4827500;29;20445;-87
2021/09/04 09:41:55;;;;;;;4.93;3.50;;;25.80;97.30;;;;;;4826109;29;20497;-86
2021/09/04 09:44:25;;;;;;;4.73;3.67;;;25.80;96.80;;;;;;4827522;29;20453;-86
2021/09/04 09:46:52;;;;;;;4.50;3.70;;;25.80;96.80;;;;;;4826276;29;20441;-85
2021/09/04 09:49:17;;;;;;;6.80;6.10;;;25.80;96.80;;;;;;4827168;29;20786;-85
2021/09/04 09:51:44;;;;;;;15.33;13.80;;;25.80;97.10;;;;;;4827574;29;20526;-86
2021/09/04 09:54:12;;;;;;;8.70;7.87;;;25.80;96.70;;;;;;4825802;29;20296;-84
2021/09/04 09:56:39;;;;;;;7.40;4.47;;;25.80;97.20;;;;;;4827703;29;20990;-84
2021/09/04 09:59:09;;;;;;;4.70;4.10;;;25.80;96.90;;;;;;4826262;29;20449;-87
2021/09/04 10:01:36;;;;;;;4.00;3.57;;;25.80;96.60;;;;;;4826228;29;20468;-86
2021/09/04 10:04:02;;;;;;;4.70;4.10;;;25.80;97.00;;;;;;4826937;29;20468;-85
2021/09/04 10:06:28;;;;;;;3.80;3.50;;;25.80;97.30;;;;;;4825714;29;20457;-85
2021/09/04 10:08:54;;;;;;;3.73;3.43;;;25.80;97.20;;;;;;4826982;29;20967;-87
2021/09/04 10:11:21;;;;;;;5.47;4.97;;;25.80;97.20;;;;;;4826273;29;20194;-87
2021/09/04 10:13:46;;;;;;;4.73;4.23;;;25.90;97.00;;;;;;4825365;29;20444;-88
2021/09/04 10:16:12;;;;;;;4.47;4.03;;;25.90;96.70;;;;;;4824651;29;20438;-87
2021/09/04 10:18:39;;;;;;;6.10;4.30;;;25.90;96.90;;;;;;4819323;29;20232;-88
2021/09/04 10:21:12;;;;;;;4.20;3.70;;;26.00;97.10;;;;;;4819239;29;20197;-88
2021/09/04 10:23:41;;;;;;;4.30;3.90;;;26.00;97.00;;;;;;4826291;29;20456;-85
2021/09/04 10:26:24;;;;;;;4.37;3.97;;;26.10;96.40;;;;;;4817795;29;20800;-84
2021/09/04 10:29:25;;;;;;;4.70;4.30;;;26.10;95.80;;;;;;4811594;29;20492;-85
2021/09/04 10:32:08;;;;;;;3.80;3.50;;;26.10;96.10;;;;;;4824462;29;20486;-84
2021/09/04 10:34:39;;;;;;;4.00;3.33;;;26.10;95.40;;;;;;4812543;29;20728;-89
2021/09/04 10:37:06;;;;;;;4.27;3.77;;;26.20;95.40;;;;;;4814988;29;20476;-86
2021/09/04 10:39:56;;;;;;;4.20;3.67;;;26.20;95.50;;;;;;4814046;29;20828;-89
2021/09/04 10:42:32;;;;;;;3.73;3.33;;;26.20;95.90;;;;;;4821530;29;20967;-83
2021/09/04 10:45:04;;;;;;;5.17;3.70;;;26.20;95.10;;;;;;4826631;29;20478;-87
2021/09/04 10:47:41;;;;;;;4.73;4.23;;;26.20;95.50;;;;;;4822966;29;20442;-86
2021/09/04 10:50:21;;;;;;;6.03;5.53;;;26.10;95.80;;;;;;4820212;29;20467;-85
2021/09/04 10:52:50;;;;;;;5.90;4.40;;;26.10;96.10;;;;;;4811866;29;20485;-87
2021/09/04 10:55:20;;;;;;;4.23;3.83;;;26.10;96.30;;;;;;4804089;29;20560;-89
2021/09/04 10:57:48;;;;;;;3.77;3.40;;;26.20;96.30;;;;;;4808600;29;20442;-83
2021/09/04 11:00:25;;;;;;;4.30;3.73;;;26.20;95.80;;;;;;4811748;29;20493;-86
2021/09/04 11:03:02;;;;;;;4.40;3.40;;;26.20;95.70;;;;;;4823573;29;20490;-86
2021/09/04 11:05:43;;;;;;;5.07;4.20;;;26.20;95.40;;;;;;4823016;29;20438;-87
2021/09/04 11:08:12;;;;;;;5.67;4.43;;;26.30;95.80;;;;;;4823804;29;20797;-90
2021/09/04 11:10:43;;;;;;;4.53;4.13;;;26.30;95.90;;;;;;4819134;29;20461;-88
2021/09/04 11:13:14;;;;;;;4.53;3.57;;;26.30;95.90;;;;;;4812888;29;21021;-87
2021/09/04 11:15:46;;;;;;;4.27;3.63;;;26.30;95.40;;;;;;4810120;29;20460;-88
2021/09/04 11:18:13;;;;;;;27.53;24.10;;;26.30;95.70;;;;;;4817757;29;20461;-85
2021/09/04 11:20:43;;;;;;;5.67;3.17;;;26.30;95.80;;;;;;4827192;29;20792;-87
2021/09/04 11:23:09;;;;;;;4.23;3.83;;;26.40;94.20;;;;;;4825470;29;20804;-89
2021/09/04 11:25:38;;;;;;;9.87;8.87;;;26.40;93.80;;;;;;4823280;29;20441;-87
2021/09/04 11:28:04;;;;;;;4.63;4.23;;;26.40;94.70;;;;;;4817744;29;20485;-86
2021/09/04 11:30:30;;;;;;;8.90;8.00;;;26.40;94.40;;;;;;4819280;29;20477;-86
2021/09/04 11:32:55;;;;;;;4.70;4.30;;;26.40;94.70;;;;;;4812375;29;20313;-87
2021/09/04 11:35:21;;;;;;;5.63;5.13;;;26.50;93.50;;;;;;4805666;29;20187;-88
2021/09/04 11:37:48;;;;;;;4.03;3.63;;;26.50;93.80;;;;;;4806891;29;20175;-86
2021/09/04 11:40:23;;;;;;;5.10;3.80;;;26.50;94.30;;;;;;4805564;29;20459;-85
2021/09/04 11:42:51;;;;;;;20.73;18.63;;;26.50;94.30;;;;;;4813461;29;20540;-88
2021/09/04 11:45:19;;;;;;;5.00;4.50;;;26.50;94.70;;;;;;4820652;29;20878;-89
2021/09/04 11:47:46;;;;;;;4.13;3.57;;;26.60;94.70;;;;;;4819486;29;20820;-89
2021/09/04 11:50:32;;;;;;;4.40;4.00;;;26.60;94.70;;;;;;4813362;29;20609;-85
2021/09/04 11:53:02;;;;;;;3.80;3.50;;;26.50;95.00;;;;;;4822862;29;20497;-89
2021/09/04 11:55:30;;;;;;;6.03;4.20;;;26.50;95.00;;;;;;4817930;29;20426;-87
2021/09/04 11:57:58;;;;;;;4.00;3.40;;;26.40;95.10;;;;;;4820049;29;20800;-88
2021/09/04 12:00:29;;;;;;;5.00;3.67;;;26.40;95.30;;;;;;4823963;29;20436;-85
2021/09/04 12:02:57;;;;;;;3.80;3.50;;;26.40;94.90;;;;;;4824272;29;20538;-85
2021/09/04 12:05:25;;;;;;;4.50;4.10;;;26.40;93.70;;;;;;4825390;29;20434;-83
2021/09/04 12:07:54;;;;;;;3.60;3.30;;;26.30;93.60;;;;;;4825600;29;20425;-84
2021/09/04 12:10:25;;;;;;;3.77;3.40;;;26.30;94.50;;;;;;4824399;29;20545;-84
2021/09/04 12:12:54;;;;;;;4.53;3.90;;;26.30;93.80;;;;;;4823853;29;21006;-87
2021/09/04 12:15:20;;;;;;;3.30;3.00;;;26.30;93.70;;;;;;4825196;29;20417;-85
2021/09/04 12:17:48;;;;;;;4.10;3.60;;;26.40;93.60;;;;;;4824048;29;20432;-87
2021/09/04 12:20:14;;;;;;;3.87;3.30;;;26.40;93.90;;;;;;4823682;29;20589;-87
2021/09/04 12:22:40;;;;;;;4.17;3.77;;;26.50;93.30;;;;;;4819786;29;20469;-84
2021/09/04 12:25:24;;;;;;;4.40;4.00;;;26.50;94.10;;;;;;4818577;29;20827;-87
2021/09/04 12:28:01;;;;;;;5.73;3.90;;;26.60;94.30;;;;;;4818481;29;20605;-85
2021/09/04 12:30:27;;;;;;;4.50;3.90;;;26.60;94.50;;;;;;4819930;29;20490;-84
2021/09/04 12:33:02;;;;;;;4.17;3.80;;;26.60;94.10;;;;;;4823602;29;20477;-87
2021/09/04 12:35:47;;;;;;;4.27;3.67;;;26.60;93.60;;;;;;4817996;29;20438;-88
2021/09/04 12:38:31;;;;;;;3.40;3.00;;;26.70;93.80;;;;;;4803606;29;20822;-86
2021/09/04 12:41:02;;;;;;;5.77;3.97;;;26.80;93.10;;;;;;4810324;29;20453;-86
2021/09/04 12:43:28;;;;;;;5.07;4.17;;;26.80;93.60;;;;;;4820717;29;20461;-86
2021/09/04 12:46:05;;;;;;;4.13;3.80;;;26.80;93.50;;;;;;4823686;29;20536;-85